createdAt,value
2023-02-05T00:01:34.931Z,103747.53
2023-02-05T00:04:01.572Z,103752.78
2023-02-05T00:06:28.127Z,103720.72
2023-02-05T00:08:57.199Z,103753.66
2023-02-05T00:11:24.747Z,103743.88
2023-02-05T00:13:53.580Z,103736.56
2023-02-05T00:16:22.170Z,103731.13
2023-02-05T00:18:49.411Z,103717.56
2023-02-05T00:21:17.152Z,103712.13
2023-02-05T00:23:43.993Z,103708.59
2023-02-05T00:26:10.949Z,103710.28
2023-02-05T00:28:40.373Z,103688.81
2023-02-05T00:31:14.410Z,103696.72
2023-02-05T00:33:41.178Z,103713.19
2023-02-05T00:36:12.688Z,103703.22
2023-02-05T00:38:40.156Z,103695.00
2023-02-05T00:41:06.788Z,103691.41
2023-02-05T00:43:33.326Z,103670.75
2023-02-05T00:45:59.898Z,103677.97
2023-02-05T00:48:26.758Z,103670.69
2023-02-05T00:50:54.880Z,103656.69
2023-02-05T00:53:22.756Z,103685.19
2023-02-05T00:55:50.281Z,103678.06
2023-02-05T00:58:17.234Z,103691.72
2023-02-05T01:00:44.331Z,103688.19
2023-02-05T01:03:11.098Z,103692.69
2023-02-05T01:05:41.332Z,103701.72
2023-02-05T01:08:10.606Z,103685.38
2023-02-05T01:10:37.644Z,103672.34
2023-02-05T01:13:07.806Z,103676.81
2023-02-05T01:15:34.813Z,103687.44
2023-02-05T01:18:03.988Z,103682.13
2023-02-05T01:20:30.705Z,103688.53
2023-02-05T01:22:57.386Z,103694.06
2023-02-05T01:25:24.188Z,103701.31
2023-02-05T01:27:50.840Z,103700.50
2023-02-05T01:30:20.401Z,103692.69
2023-02-05T01:32:47.042Z,103704.22
2023-02-05T01:35:15.959Z,103667.59
2023-02-05T01:37:42.554Z,103698.91
2023-02-05T01:40:13.753Z,103688.06
2023-02-05T01:42:40.303Z,103686.16
2023-02-05T01:45:54.810Z,103685.34
2023-02-05T01:48:29.753Z,103693.72
2023-02-05T01:51:04.738Z,103694.47
2023-02-05T01:53:34.863Z,103701.75
2023-02-05T01:56:14.939Z,103690.13
2023-02-05T01:58:49.579Z,103705.56
2023-02-05T02:01:16.284Z,103700.16
2023-02-05T02:03:46.347Z,103671.94
2023-02-05T02:06:12.889Z,103695.72
2023-02-05T02:08:39.459Z,103680.38
2023-02-05T02:11:10.134Z,103688.53
2023-02-05T02:13:40.129Z,103685.22
2023-02-05T02:16:08.161Z,103703.31
2023-02-05T02:18:36.841Z,103708.53
2023-02-05T02:21:28.021Z,103689.63
2023-02-05T02:24:23.805Z,103677.88
2023-02-05T02:27:14.871Z,103676.13
2023-02-05T02:30:02.452Z,103659.91
2023-02-05T02:32:45.843Z,103663.59
2023-02-05T02:35:44.614Z,103658.22
2023-02-05T02:38:15.472Z,103667.25
2023-02-05T02:40:51.911Z,103638.19
2023-02-05T02:43:30.787Z,103654.00
2023-02-05T02:46:05.504Z,103670.16
2023-02-05T02:48:35.139Z,103610.97
2023-02-05T02:51:03.068Z,103650.44
2023-02-05T02:53:42.839Z,103650.31
2023-02-05T02:56:12.375Z,103643.47
2023-02-05T02:59:19.728Z,103633.53
2023-02-05T03:01:54.048Z,103659.50
2023-02-05T03:04:30.884Z,103616.00
2023-02-05T03:07:06.294Z,103635.13
2023-02-05T03:09:40.105Z,103381.63
2023-02-05T03:12:07.343Z,103626.28
2023-02-05T03:14:36.186Z,103630.81
2023-02-05T03:17:02.884Z,103624.50
2023-02-05T03:19:29.986Z,103611.44
2023-02-05T03:22:04.890Z,103613.97
2023-02-05T03:24:32.587Z,103618.47
2023-02-05T03:26:59.214Z,103612.41
2023-02-05T03:29:32.904Z,103630.94
2023-02-05T03:32:29.863Z,103640.16
2023-02-05T03:35:17.681Z,103654.63
2023-02-05T03:37:53.434Z,103661.91
2023-02-05T03:40:43.718Z,103652.22
2023-02-05T03:43:35.177Z,103655.72
2023-02-05T03:46:13.265Z,103659.31
2023-02-05T03:48:57.936Z,103650.19
2023-02-05T03:51:51.972Z,103659.31
2023-02-05T03:54:23.059Z,103654.88
2023-02-05T03:57:05.047Z,103630.25
2023-02-05T03:59:33.916Z,103655.00
2023-02-05T04:02:01.061Z,103654.94
2023-02-05T04:04:27.908Z,103649.69
2023-02-05T04:06:55.080Z,103667.69
2023-02-05T04:09:21.628Z,103667.88
2023-02-05T04:11:48.187Z,103668.63
2023-02-05T04:14:15.436Z,103668.63
2023-02-05T04:16:42.069Z,103679.56
2023-02-05T04:19:08.720Z,103672.31
2023-02-05T04:21:35.314Z,103666.03
2023-02-05T04:24:02.736Z,103643.03
2023-02-05T04:26:29.354Z,103653.53
2023-02-05T04:28:56.003Z,103640.38
2023-02-05T04:31:22.811Z,103530.00
2023-02-05T04:33:49.397Z,103636.91
2023-02-05T04:36:16.023Z,103652.78
2023-02-05T04:38:45.087Z,103647.53
2023-02-05T04:41:11.716Z,103652.72
2023-02-05T04:43:38.296Z,103665.34
2023-02-05T04:46:09.608Z,103649.88
2023-02-05T04:48:36.749Z,103655.25
2023-02-05T04:51:08.234Z,103654.34
2023-02-05T04:53:37.186Z,103633.31
2023-02-05T04:56:12.753Z,103649.81
2023-02-05T04:58:40.067Z,103656.06
2023-02-05T05:01:12.474Z,103647.97
2023-02-05T05:03:45.456Z,103643.41
2023-02-05T05:06:13.276Z,103644.25
2023-02-05T05:08:40.380Z,103650.63
2023-02-05T05:11:10.082Z,103632.91
2023-02-05T05:13:39.740Z,103592.31
2023-02-05T05:16:07.452Z,103668.84
2023-02-05T05:18:35.095Z,103644.44
2023-02-05T05:21:02.317Z,103623.19
2023-02-05T05:23:29.184Z,103648.03
2023-02-05T05:25:55.802Z,103637.47
2023-02-05T05:28:22.485Z,103630.19
2023-02-05T05:30:49.067Z,103641.78
2023-02-05T05:33:16.034Z,103614.16
2023-02-05T05:35:42.889Z,103619.66
2023-02-05T05:38:09.432Z,103624.81
2023-02-05T05:40:54.639Z,103640.75
2023-02-05T05:43:40.227Z,103642.59
2023-02-05T05:46:08.413Z,103653.47
2023-02-05T05:48:37.276Z,103643.72
2023-02-05T05:51:04.359Z,103645.38
2023-02-05T05:53:34.309Z,103649.09
2023-02-05T05:56:00.865Z,103636.84
2023-02-05T05:58:29.570Z,103649.22
2023-02-05T06:00:56.236Z,103646.56
2023-02-05T06:03:24.014Z,103628.81
2023-02-05T06:05:50.593Z,103636.78
2023-02-05T06:08:17.228Z,103645.81
2023-02-05T06:10:44.197Z,103643.16
2023-02-05T06:13:13.384Z,103636.97
2023-02-05T06:15:39.995Z,103645.19
2023-02-05T06:18:06.596Z,103582.25
2023-02-05T06:20:33.239Z,103644.25
2023-02-05T06:22:59.870Z,103649.00
2023-02-05T06:25:26.690Z,103652.53
2023-02-05T06:27:55.641Z,103658.34
2023-02-05T06:30:22.244Z,103678.19
2023-02-05T06:32:48.830Z,103687.44
2023-02-05T06:35:15.684Z,103670.75
2023-02-05T06:37:47.415Z,103682.72
2023-02-05T06:40:15.899Z,103708.16
2023-02-05T06:42:47.310Z,103698.03
2023-02-05T06:45:14.552Z,103716.84
2023-02-05T06:47:41.098Z,103740.53
2023-02-05T06:50:08.063Z,103746.19
2023-02-05T06:52:37.632Z,103734.56
2023-02-05T06:55:04.826Z,103730.59
2023-02-05T06:57:32.036Z,103750.16
2023-02-05T06:59:58.642Z,103760.25
2023-02-05T07:02:25.436Z,103754.50
2023-02-05T07:04:52.097Z,103778.50
2023-02-05T07:07:18.799Z,103784.97
2023-02-05T07:09:45.390Z,103782.28
2023-02-05T07:12:12.124Z,103800.38
2023-02-05T07:14:39.877Z,103776.59
2023-02-05T07:17:08.672Z,103794.44
2023-02-05T07:19:36.569Z,103790.88
2023-02-05T07:22:04.068Z,103814.94
2023-02-05T07:24:31.704Z,103806.94
2023-02-05T07:26:58.399Z,103772.09
2023-02-05T07:29:24.997Z,103817.97
2023-02-05T07:31:52.660Z,103821.84
2023-02-05T07:34:19.861Z,103832.09
2023-02-05T07:36:52.179Z,103835.63
2023-02-05T07:39:19.413Z,103845.53
2023-02-05T07:41:45.990Z,103839.34
2023-02-05T07:44:13.228Z,103845.56
2023-02-05T07:46:39.997Z,103852.84
2023-02-05T07:49:06.582Z,103869.94
2023-02-05T07:51:35.461Z,103872.53
2023-02-05T07:54:07.388Z,103853.88
2023-02-05T07:56:34.025Z,103871.38
2023-02-05T07:59:00.849Z,103878.66
2023-02-05T08:01:27.706Z,103866.94
2023-02-05T08:03:54.350Z,103882.97
2023-02-05T08:06:26.206Z,103892.91
2023-02-05T08:08:52.962Z,103851.97
2023-02-05T08:11:19.850Z,103906.13
2023-02-05T08:13:46.976Z,103752.31
2023-02-05T08:16:17.694Z,103900.53
2023-02-05T08:18:49.459Z,103897.00
2023-02-05T08:21:16.780Z,103889.13
2023-02-05T08:23:43.364Z,103893.31
2023-02-05T08:26:10.042Z,103896.78
2023-02-05T08:28:36.606Z,103897.72
2023-02-05T08:31:09.736Z,103882.25
2023-02-05T08:33:36.389Z,103884.91
2023-02-05T08:36:03.020Z,103905.41
2023-02-05T08:38:29.679Z,103903.34
2023-02-05T08:40:56.293Z,103920.53
2023-02-05T08:43:23.012Z,103903.41
2023-02-05T08:45:49.652Z,103913.13
2023-02-05T08:48:16.307Z,103921.19
2023-02-05T08:50:46.186Z,103912.88
2023-02-05T08:53:12.745Z,103876.94
2023-02-05T08:55:39.362Z,103903.72
2023-02-05T08:58:06.098Z,103895.47
2023-02-05T09:00:33.307Z,103899.06
2023-02-05T09:02:59.922Z,103912.50
2023-02-05T09:05:28.847Z,103903.38
2023-02-05T09:07:55.591Z,103919.63
2023-02-05T09:10:24.750Z,103915.84
2023-02-05T09:12:52.023Z,103932.16
2023-02-05T09:15:20.942Z,103915.25
2023-02-05T09:17:48.053Z,103918.34
2023-02-05T09:20:14.641Z,103921.84
2023-02-05T09:22:41.305Z,103906.53
2023-02-05T09:25:11.749Z,103858.53
2023-02-05T09:27:38.377Z,103870.34
2023-02-05T09:30:08.258Z,103935.16
2023-02-05T09:32:34.874Z,103928.75
2023-02-05T09:35:09.903Z,103928.56
2023-02-05T09:37:39.311Z,103930.47
2023-02-05T09:40:20.549Z,103928.84
2023-02-05T09:42:57.030Z,103942.34
2023-02-05T09:46:04.488Z,103938.47
2023-02-05T09:48:33.987Z,103940.22
2023-02-05T09:51:01.564Z,103890.75
2023-02-05T09:53:35.534Z,103924.97
2023-02-05T09:56:06.673Z,103884.28
2023-02-05T09:58:37.985Z,103936.56
2023-02-05T10:01:12.560Z,103940.03
2023-02-05T10:03:49.611Z,103939.94
2023-02-05T10:06:19.912Z,103935.09
2023-02-05T10:09:25.840Z,103948.44
2023-02-05T10:12:09.400Z,103939.34
2023-02-05T10:14:42.049Z,103953.66
2023-02-05T10:17:36.613Z,103941.06
2023-02-05T10:20:20.739Z,103896.59
2023-02-05T10:23:07.051Z,103913.97
2023-02-05T10:25:45.447Z,103942.00
2023-02-05T10:28:31.695Z,103942.41
2023-02-05T10:31:19.844Z,103959.72
2023-02-05T10:33:49.447Z,103960.53
2023-02-05T10:36:21.918Z,103948.78
2023-02-05T10:38:51.205Z,103930.69
2023-02-05T10:41:43.219Z,103931.06
2023-02-05T10:44:22.036Z,103947.09
2023-02-05T10:46:55.266Z,103892.16
2023-02-05T10:49:28.603Z,103937.41
2023-02-05T10:51:57.688Z,103939.38
2023-02-05T10:54:29.100Z,103924.56
2023-02-05T10:57:01.783Z,103936.72
2023-02-05T10:59:34.621Z,103926.00
2023-02-05T11:02:04.453Z,103957.63
2023-02-05T11:04:38.275Z,103955.53
2023-02-05T11:07:13.528Z,103923.69
2023-02-05T11:09:40.369Z,103930.31
2023-02-05T11:12:18.891Z,103927.47
2023-02-05T11:14:46.689Z,103948.06
2023-02-05T11:17:21.088Z,103953.44
2023-02-05T11:19:54.284Z,103964.84
2023-02-05T11:22:33.304Z,103956.03
2023-02-05T11:25:16.563Z,103952.22
2023-02-05T11:27:54.693Z,103952.03
2023-02-05T11:30:50.403Z,103952.94
2023-02-05T11:33:24.738Z,103889.13
2023-02-05T11:36:03.846Z,103969.97
2023-02-05T11:38:39.889Z,103978.00
2023-02-05T11:41:08.306Z,103972.81
2023-02-05T11:43:38.122Z,103955.09
2023-02-05T11:46:08.402Z,103960.19
2023-02-05T11:48:38.368Z,103967.75
2023-02-05T11:51:08.146Z,103944.56
2023-02-05T11:53:39.242Z,103896.44
2023-02-05T11:56:14.088Z,103935.56
2023-02-05T11:58:40.707Z,103965.66
2023-02-05T12:01:24.199Z,103970.09
2023-02-05T12:04:21.204Z,103956.34
2023-02-05T12:06:55.358Z,103929.81
2023-02-05T12:09:24.226Z,103961.88
2023-02-05T12:12:06.587Z,103957.59
2023-02-05T12:14:38.456Z,103974.94
2023-02-05T12:17:20.282Z,103990.28
2023-02-05T12:20:09.995Z,103983.19
2023-02-05T12:22:45.330Z,103971.47
2023-02-05T12:25:25.302Z,103949.50
2023-02-05T12:28:07.795Z,103944.50
2023-02-05T12:30:42.400Z,103963.06
2023-02-05T12:33:19.630Z,103962.91
2023-02-05T12:36:11.459Z,103983.72
2023-02-05T12:38:52.113Z,103985.53
2023-02-05T12:41:43.720Z,103980.75
2023-02-05T12:44:32.294Z,103989.16
2023-02-05T12:47:12.309Z,103946.28
2023-02-05T12:50:14.446Z,103971.84
2023-02-05T12:53:00.848Z,103993.19
2023-02-05T12:55:51.786Z,103962.69
2023-02-05T12:58:20.932Z,103957.16
2023-02-05T13:00:54.784Z,103981.81
2023-02-05T13:03:36.489Z,103979.00
2023-02-05T13:06:13.730Z,103950.38
2023-02-05T13:09:13.320Z,103976.47
2023-02-05T13:12:05.113Z,103958.53
2023-02-05T13:14:43.479Z,103972.16
2023-02-05T13:17:21.044Z,103950.28
2023-02-05T13:19:53.254Z,103929.00
2023-02-05T13:22:41.166Z,103970.28
2023-02-05T13:25:39.852Z,103983.19
2023-02-05T13:28:33.686Z,103976.78
2023-02-05T13:31:06.479Z,103977.97
2023-02-05T13:33:33.099Z,103959.81
2023-02-05T13:36:18.543Z,103986.19
2023-02-05T13:38:57.469Z,103994.31
2023-02-05T13:41:56.243Z,103990.34
2023-02-05T13:44:41.483Z,103997.53
2023-02-05T13:47:29.798Z,103989.91
2023-02-05T13:50:22.393Z,104000.50
2023-02-05T13:53:06.155Z,103992.44
2023-02-05T13:55:57.432Z,103998.59
2023-02-05T13:58:48.377Z,104001.69
2023-02-05T14:01:20.319Z,104009.91
2023-02-05T14:04:32.632Z,104013.22
2023-02-05T14:07:02.973Z,104014.50
2023-02-05T14:09:41.429Z,104003.22
2023-02-05T14:12:12.170Z,104000.13
2023-02-05T14:14:41.133Z,104005.31
2023-02-05T14:17:31.151Z,104011.94
2023-02-05T14:19:58.991Z,104008.34
2023-02-05T14:22:42.299Z,104002.84
2023-02-05T14:25:42.911Z,104007.47
2023-02-05T14:28:12.531Z,104013.59
2023-02-05T14:31:05.739Z,104018.81
2023-02-05T14:33:45.422Z,103961.78
2023-02-05T14:36:17.963Z,104021.06
2023-02-05T14:38:51.458Z,103986.75
2023-02-05T14:41:22.309Z,104016.38
2023-02-05T14:44:02.124Z,104021.66
2023-02-05T14:46:39.937Z,104007.41
2023-02-05T14:49:22.521Z,103994.34
2023-02-05T14:51:54.633Z,104014.59
2023-02-05T14:54:24.140Z,104018.53
2023-02-05T14:57:09.732Z,104010.22
2023-02-05T14:59:47.948Z,104025.44
2023-02-05T15:02:51.600Z,104032.03
2023-02-05T15:05:39.201Z,104039.56
2023-02-05T15:08:24.425Z,104043.28
2023-02-05T15:11:00.168Z,104047.84
2023-02-05T15:13:26.925Z,104046.84
2023-02-05T15:16:18.841Z,104046.59
2023-02-05T15:18:55.179Z,104046.47
2023-02-05T15:21:21.709Z,104061.06
2023-02-05T15:23:58.598Z,104054.91
2023-02-05T15:26:42.357Z,104064.88
2023-02-05T15:29:32.599Z,104060.34
2023-02-05T15:32:03.839Z,104054.69
2023-02-05T15:34:38.628Z,104052.88
2023-02-05T15:37:29.831Z,104062.81
2023-02-05T15:39:57.758Z,104055.78
2023-02-05T15:42:40.644Z,104060.16
2023-02-05T15:45:26.555Z,104053.28
2023-02-05T15:47:59.648Z,104067.91
2023-02-05T15:50:27.914Z,104081.88
2023-02-05T15:52:55.417Z,104091.19
2023-02-05T15:55:24.706Z,104067.31
2023-02-05T15:57:51.652Z,104098.00
2023-02-05T16:00:29.315Z,104109.88
2023-02-05T16:03:01.880Z,104099.28
2023-02-05T16:05:32.660Z,104094.28
2023-02-05T16:08:01.949Z,104104.06
2023-02-05T16:10:35.063Z,104080.63
2023-02-05T16:13:05.335Z,104131.56
2023-02-05T16:15:45.159Z,104118.25
2023-02-05T16:18:20.344Z,104109.03
2023-02-05T16:20:53.486Z,104125.06
2023-02-05T16:23:35.158Z,104104.81
2023-02-05T16:26:15.223Z,104136.31
2023-02-05T16:28:48.384Z,104145.47
2023-02-05T16:31:21.280Z,104137.44
2023-02-05T16:33:53.725Z,104142.13
2023-02-05T16:36:31.873Z,104145.97
2023-02-05T16:39:07.382Z,104139.84
2023-02-05T16:41:40.380Z,104147.22
2023-02-05T16:44:25.625Z,104086.09
2023-02-05T16:47:19.187Z,104156.53
2023-02-05T16:49:47.769Z,104169.28
2023-02-05T16:52:32.466Z,104165.69
2023-02-05T16:55:05.665Z,104159.59
2023-02-05T16:57:36.690Z,104137.44
2023-02-05T17:00:25.764Z,104178.66
2023-02-05T17:02:55.457Z,104173.34
2023-02-05T17:05:28.584Z,104175.31
2023-02-05T17:07:58.167Z,104168.41
2023-02-05T17:10:25.432Z,104179.19
2023-02-05T17:13:05.077Z,104185.69
2023-02-05T17:15:40.309Z,104178.56
2023-02-05T17:18:29.448Z,104175.06
2023-02-05T17:21:21.508Z,104174.31
2023-02-05T17:23:49.816Z,104170.94
2023-02-05T17:26:16.998Z,104155.00
2023-02-05T17:28:46.825Z,104170.06
2023-02-05T17:31:14.337Z,104156.06
2023-02-05T17:33:43.224Z,104189.22
2023-02-05T17:36:17.796Z,104190.19
2023-02-05T17:38:45.398Z,104193.94
2023-02-05T17:41:41.278Z,104203.03
2023-02-05T17:44:12.317Z,104192.28
2023-02-05T17:46:39.584Z,104171.06
2023-02-05T17:49:06.624Z,104185.31
2023-02-05T17:51:33.332Z,104216.88
2023-02-05T17:54:02.999Z,104123.91
2023-02-05T17:56:29.838Z,104130.38
2023-02-05T17:58:58.213Z,104193.66
2023-02-05T18:01:25.004Z,104199.00
2023-02-05T18:03:51.657Z,104209.91
2023-02-05T18:06:19.198Z,104129.84
2023-02-05T18:08:45.995Z,104220.09
2023-02-05T18:11:15.088Z,104169.41
2023-02-05T18:13:41.721Z,104214.00
2023-02-05T18:16:12.289Z,104222.03
2023-02-05T18:18:39.290Z,104224.91
2023-02-05T18:21:07.328Z,104205.25
2023-02-05T18:23:33.960Z,104233.06
2023-02-05T18:26:00.987Z,104238.44
2023-02-05T18:28:28.542Z,104229.47
2023-02-05T18:31:03.668Z,104211.59
2023-02-05T18:33:30.611Z,104232.22
2023-02-05T18:36:07.892Z,104204.69
2023-02-05T18:38:38.254Z,104213.69
2023-02-05T18:41:05.895Z,104239.63
2023-02-05T18:43:36.351Z,104241.44
2023-02-05T18:46:11.233Z,104125.63
2023-02-05T18:48:45.680Z,104237.13
2023-02-05T18:51:18.598Z,104234.50
2023-02-05T18:53:46.101Z,104218.53
2023-02-05T18:56:16.287Z,104244.47
2023-02-05T18:58:44.531Z,104256.31
2023-02-05T19:01:16.831Z,104253.66
2023-02-05T19:03:46.328Z,104252.94
2023-02-05T19:06:17.118Z,104252.06
2023-02-05T19:08:43.969Z,104244.09
2023-02-05T19:11:13.633Z,104260.25
2023-02-05T19:13:40.697Z,104252.41
2023-02-05T19:16:12.733Z,104255.16
2023-02-05T19:18:40.620Z,104272.22
2023-02-05T19:21:12.789Z,104264.97
2023-02-05T19:23:39.970Z,104246.44
2023-02-05T19:26:14.215Z,104264.31
2023-02-05T19:28:41.515Z,104253.50
2023-02-05T19:31:15.040Z,104267.09
2023-02-05T19:33:42.247Z,104286.13
2023-02-05T19:36:10.681Z,104280.75
2023-02-05T19:38:39.168Z,104280.81
2023-02-05T19:41:09.461Z,104246.09
2023-02-05T19:43:36.165Z,104274.66
2023-02-05T19:46:10.130Z,104264.91
2023-02-05T19:48:36.807Z,104264.06
2023-02-05T19:51:08.475Z,104260.53
2023-02-05T19:53:38.920Z,104269.59
2023-02-05T19:56:27.245Z,104284.06
2023-02-05T19:58:55.329Z,104285.06
2023-02-05T20:01:32.666Z,104281.47
2023-02-05T20:04:16.877Z,104262.63
2023-02-05T20:06:46.490Z,104268.94
2023-02-05T20:09:14.465Z,104269.22
2023-02-05T20:11:43.630Z,104281.88
2023-02-05T20:14:11.317Z,104307.78
2023-02-05T20:16:41.918Z,104307.84
2023-02-05T20:19:11.065Z,104309.63
2023-02-05T20:21:38.576Z,104308.63
2023-02-05T20:24:07.455Z,104319.53
2023-02-05T20:26:35.168Z,104318.59
2023-02-05T20:29:23.082Z,104294.59
2023-02-05T20:31:51.507Z,104306.06
2023-02-05T20:34:25.628Z,104310.50
2023-02-05T20:36:58.026Z,104309.59
2023-02-05T20:39:28.793Z,104312.28
2023-02-05T20:41:57.985Z,104316.84
2023-02-05T20:44:26.826Z,104287.41
2023-02-05T20:46:54.011Z,104297.22
2023-02-05T20:49:20.780Z,104308.84
2023-02-05T20:51:47.565Z,104322.41
2023-02-05T20:54:14.228Z,104331.41
2023-02-05T20:56:41.557Z,104332.34
2023-02-05T20:59:09.594Z,104313.69
2023-02-05T21:01:37.801Z,104339.63
2023-02-05T21:04:06.688Z,104336.09
2023-02-05T21:06:36.555Z,104339.47
2023-02-05T21:09:04.455Z,104344.97
2023-02-05T21:11:31.618Z,104350.44
2023-02-05T21:13:58.872Z,104341.47
2023-02-05T21:16:27.722Z,104343.31
2023-02-05T21:18:55.647Z,104344.22
2023-02-05T21:21:24.629Z,104327.41
2023-02-05T21:23:59.159Z,104354.19
2023-02-05T21:26:39.992Z,104365.06
2023-02-05T21:29:15.265Z,104356.25
2023-02-05T21:31:46.365Z,104353.56
2023-02-05T21:34:15.635Z,104357.09
2023-02-05T21:36:42.290Z,104353.47
2023-02-05T21:39:10.820Z,104341.88
2023-02-05T21:41:37.632Z,104329.38
2023-02-05T21:44:05.013Z,104340.00
2023-02-05T21:46:31.882Z,104352.69
2023-02-05T21:49:04.177Z,104351.75
2023-02-05T21:51:34.642Z,104351.88
2023-02-05T21:54:03.860Z,104361.75
2023-02-05T21:56:50.727Z,104364.47
2023-02-05T21:59:19.439Z,104362.69
2023-02-05T22:01:46.166Z,104360.94
2023-02-05T22:04:16.342Z,104352.88
2023-02-05T22:06:43.765Z,104344.91
2023-02-05T22:09:13.880Z,104347.50
2023-02-05T22:11:40.775Z,104334.03
2023-02-05T22:14:08.683Z,104272.53
2023-02-05T22:16:36.652Z,104339.50
2023-02-05T22:19:04.600Z,104330.66
2023-02-05T22:21:34.900Z,104340.56
2023-02-05T22:24:02.843Z,104346.84
2023-02-05T22:26:32.274Z,104318.25
2023-02-05T22:29:02.317Z,104314.72
2023-02-05T22:31:29.671Z,104331.78
2023-02-05T22:33:57.024Z,104347.06
2023-02-05T22:36:26.694Z,104340.81
2023-02-05T22:38:54.394Z,104350.72
2023-02-05T22:41:22.669Z,104352.59
2023-02-05T22:43:49.677Z,104353.50
2023-02-05T22:46:21.137Z,104316.00
2023-02-05T22:48:49.162Z,104353.50
2023-02-05T22:51:29.554Z,104364.44
2023-02-05T22:53:56.522Z,104348.34
2023-02-05T22:56:23.620Z,104358.28
2023-02-05T22:58:50.633Z,104372.59
2023-02-05T23:01:21.376Z,104345.75
2023-02-05T23:03:50.847Z,104371.75
2023-02-05T23:06:21.472Z,104364.53
2023-02-05T23:09:03.179Z,104364.53
2023-02-05T23:11:31.500Z,104358.28
2023-02-05T23:14:00.506Z,104338.63
2023-02-05T23:16:30.665Z,104344.78
2023-02-05T23:19:00.791Z,104335.00
2023-02-05T23:21:29.849Z,104346.63
2023-02-05T23:23:57.042Z,104313.59
2023-02-05T23:26:30.770Z,104361.13
2023-02-05T23:28:58.037Z,104353.06
2023-02-05T23:31:27.906Z,104356.72
2023-02-05T23:33:54.936Z,104338.81
2023-02-05T23:36:21.775Z,104346.84
2023-02-05T23:38:48.985Z,104327.19
2023-02-05T23:41:35.454Z,104341.47
2023-02-05T23:44:22.909Z,104362.22
2023-02-05T23:46:54.257Z,104356.84
2023-02-05T23:49:23.111Z,104358.69
2023-02-05T23:51:51.043Z,104363.16
2023-02-05T23:54:19.940Z,104364.97
2023-02-05T23:56:47.013Z,104356.88
2023-02-05T23:59:14.725Z,104364.09
